サンフアン の空港の天気 - METARとTAF

ルイス・ムニョス・マリン国際空港 ( TJSJ / SJU ) - プエルトリコ サンフアン
飛行場実況気象(Metar)
観測時間06/25 08:56 AST (06/25 12:56 UTC)
風向・風速東 9m/s
視程10km以上
天気現象
少しの雲 雲底高度 910m
気温28.9℃
湿度72%
気圧1019.7hPa
METARTJSJ 251256Z 08017KT 10SM FEW030 29/23 A3012 RMK AO2 SLP197 T02890233
過去の天気等 Google飛行場航空写真 Wunderground天気予報

過去48時間のMETAR

飛行場予報(TAF)
発表時間: 6/25 07:30 AST (6/25 11:30 UTC)
予報対象時間: 25日8時 AST ~ 26日8時 AST
風向・風速東 5m/s
視程10km以上
少しの雲 雲底高度 790m
25日9時 AST から
風向・風速東 6m/s
視程10km以上
全天の4割程度の雲 雲底高度 760m
25日14時 AST から
風向・風速東北東 8m/s 瞬間風速 11m/s
視程10km以上
天気現象周辺でしゅう雨
少しの雲 雲底高度 910m
TJSJ 251130Z 2512/2612 09010KT P6SM FEW026
FM251300 08012KT P6SM SCT025
FM251800 07015G22KT P6SM VCSH FEW030